sensor_id;sensor_type;location;lat;lon;timestamp;pressure;altitude;pressure_sealevel;temperature;humidity
24558;BME280;12726;49.148;8.582;2024-01-15T00:02:09;99522.38;;;-2.54;100.00
24558;BME280;12726;49.148;8.582;2024-01-15T00:04:55;99522.78;;;-2.49;100.00
24558;BME280;12726;49.148;8.582;2024-01-15T00:07:40;99509.34;;;-2.55;100.00
24558;BME280;12726;49.148;8.582;2024-01-15T00:10:25;99523.91;;;-2.51;100.00
24558;BME280;12726;49.148;8.582;2024-01-15T00:13:11;99525.03;;;-2.54;100.00
24558;BME280;12726;49.148;8.582;2024-01-15T00:15:56;99524.06;;;-2.53;100.00
24558;BME280;12726;49.148;8.582;2024-01-15T00:18:43;99515.44;;;-2.55;100.00
24558;BME280;12726;49.148;8.582;2024-01-15T00:21:28;99516.28;;;-2.54;100.00
24558;BME280;12726;49.148;8.582;2024-01-15T00:24:16;99509.34;;;-2.55;100.00
24558;BME280;12726;49.148;8.582;2024-01-15T00:27:01;99505.75;;;-2.54;100.00
24558;BME280;12726;49.148;8.582;2024-01-15T00:29:46;99501.63;;;-2.57;100.00
24558;BME280;12726;49.148;8.582;2024-01-15T00:32:32;99498.38;;;-2.51;100.00
24558;BME280;12726;49.148;8.582;2024-01-15T00:35:18;99501.00;;;-2.51;100.00
24558;BME280;12726;49.148;8.582;2024-01-15T00:38:04;99497.69;;;-2.53;100.00
24558;BME280;12726;49.148;8.582;2024-01-15T00:40:49;99486.66;;;-2.56;100.00
24558;BME280;12726;49.148;8.582;2024-01-15T00:43:35;99484.84;;;-2.56;100.00
24558;BME280;12726;49.148;8.582;2024-01-15T00:46:20;99481.38;;;-2.56;100.00
24558;BME280;12726;49.148;8.582;2024-01-15T00:49:05;99474.13;;;-2.54;100.00
24558;BME280;12726;49.148;8.582;2024-01-15T00:51:52;99467.38;;;-2.57;100.00
24558;BME280;12726;49.148;8.582;2024-01-15T00:54:37;99462.09;;;-2.57;100.00
24558;BME280;12726;49.148;8.582;2024-01-15T00:57:23;99457.19;;;-2.52;100.00
24558;BME280;12726;49.148;8.582;2024-01-15T01:00:10;99456.50;;;-2.54;100.00
24558;BME280;12726;49.148;8.582;2024-01-15T01:02:55;99454.19;;;-2.57;100.00
24558;BME280;12726;49.148;8.582;2024-01-15T01:05:41;99466.53;;;-2.57;100.00
24558;BME280;12726;49.148;8.582;2024-01-15T01:08:28;99456.97;;;-2.58;100.00
24558;BME280;12726;49.148;8.582;2024-01-15T01:11:14;99456.63;;;-2.63;100.00
24558;BME280;12726;49.148;8.582;2024-01-15T01:13:59;99475.56;;;-2.60;100.00
24558;BME280;12726;49.148;8.582;2024-01-15T01:16:45;99471.81;;;-2.57;100.00
24558;BME280;12726;49.148;8.582;2024-01-15T01:19:30;99460.28;;;-2.56;100.00
24558;BME280;12726;49.148;8.582;2024-01-15T01:22:16;99460.03;;;-2.63;100.00
24558;BME280;12726;49.148;8.582;2024-01-15T01:25:03;99461.72;;;-2.62;100.00
24558;BME280;12726;49.148;8.582;2024-01-15T01:27:48;99467.94;;;-2.63;100.00
24558;BME280;12726;49.148;8.582;2024-01-15T01:30:34;99460.03;;;-2.63;100.00
24558;BME280;12726;49.148;8.582;2024-01-15T01:33:19;99467.28;;;-2.65;100.00
24558;BME280;12726;49.148;8.582;2024-01-15T01:36:07;99470.59;;;-2.63;100.00
24558;BME280;12726;49.148;8.582;2024-01-15T01:38:53;99470.44;;;-2.61;100.00
24558;BME280;12726;49.148;8.582;2024-01-15T01:41:39;99467.94;;;-2.63;100.00
24558;BME280;12726;49.148;8.582;2024-01-15T01:44:25;99471.41;;;-2.62;100.00
24558;BME280;12726;49.148;8.582;2024-01-15T01:47:12;99467.16;;;-2.63;100.00
24558;BME280;12726;49.148;8.582;2024-01-15T01:49:58;99458.72;;;-2.67;100.00
24558;BME280;12726;49.148;8.582;2024-01-15T01:52:44;99458.19;;;-2.70;100.00
24558;BME280;12726;49.148;8.582;2024-01-15T01:55:32;99452.59;;;-2.67;100.00
24558;BME280;12726;49.148;8.582;2024-01-15T01:58:20;99461.63;;;-2.70;100.00
24558;BME280;12726;49.148;8.582;2024-01-15T02:01:06;99454.28;;;-2.66;100.00
24558;BME280;12726;49.148;8.582;2024-01-15T02:03:51;99458.03;;;-2.69;100.00
24558;BME280;12726;49.148;8.582;2024-01-15T02:06:37;99470.06;;;-2.66;100.00
24558;BME280;12726;49.148;8.582;2024-01-15T02:09:22;99458.84;;;-2.68;100.00
24558;BME280;12726;49.148;8.582;2024-01-15T02:12:08;99462.16;;;-2.66;100.00
24558;BME280;12726;49.148;8.582;2024-01-15T02:14:54;99442.75;;;-2.65;100.00
24558;BME280;12726;49.148;8.582;2024-01-15T02:17:58;99443.88;;;-2.68;100.00
24558;BME280;12726;49.148;8.582;2024-01-15T02:20:43;99442.91;;;-2.67;100.00
24558;BME280;12726;49.148;8.582;2024-01-15T02:23:30;99435.81;;;-2.66;100.00
24558;BME280;12726;49.148;8.582;2024-01-15T02:26:15;99436.81;;;-2.67;100.00
24558;BME280;12726;49.148;8.582;2024-01-15T02:29:00;99442.75;;;-2.65;100.00
24558;BME280;12726;49.148;8.582;2024-01-15T02:31:46;99442.63;;;-2.64;100.00
24558;BME280;12726;49.148;8.582;2024-01-15T02:34:31;99452.59;;;-2.67;100.00
24558;BME280;12726;49.148;8.582;2024-01-15T02:37:17;99432.91;;;-2.63;100.00
24558;BME280;12726;49.148;8.582;2024-01-15T02:40:04;99442.91;;;-2.67;100.00
24558;BME280;12726;49.148;8.582;2024-01-15T02:42:49;99433.69;;;-2.63;100.00
24558;BME280;12726;49.148;8.582;2024-01-15T02:45:35;99439.28;;;-2.66;100.00
24558;BME280;12726;49.148;8.582;2024-01-15T02:48:20;99435.34;;;-2.62;100.00
24558;BME280;12726;49.148;8.582;2024-01-15T02:51:05;99425.00;;;-2.63;100.00
24558;BME280;12726;49.148;8.582;2024-01-15T02:53:52;99439.16;;;-2.64;100.00
24558;BME280;12726;49.148;8.582;2024-01-15T02:56:38;99432.91;;;-2.63;100.00
24558;BME280;12726;49.148;8.582;2024-01-15T02:59:23;99422.38;;;-2.63;100.00
24558;BME280;12726;49.148;8.582;2024-01-15T03:02:09;99425.66;;;-2.61;100.00
24558;BME280;12726;49.148;8.582;2024-01-15T03:04:54;99432.59;;;-2.60;100.00
24558;BME280;12726;49.148;8.582;2024-01-15T03:07:40;99415.94;;;-2.61;100.00
24558;BME280;12726;49.148;8.582;2024-01-15T03:10:25;99425.34;;;-2.58;100.00
24558;BME280;12726;49.148;8.582;2024-01-15T03:13:12;99421.91;;;-2.59;100.00
24558;BME280;12726;49.148;8.582;2024-01-15T03:15:58;99408.88;;;-2.60;100.00
24558;BME280;12726;49.148;8.582;2024-01-15T03:18:44;99420.25;;;-2.60;100.00
24558;BME280;12726;49.148;8.582;2024-01-15T03:21:30;99427.31;;;-2.60;100.00
24558;BME280;12726;49.148;8.582;2024-01-15T03:24:15;99423.03;;;-2.61;100.00
24558;BME280;12726;49.148;8.582;2024-01-15T03:27:00;99423.69;;;-2.59;100.00
24558;BME280;12726;49.148;8.582;2024-01-15T03:29:47;99418.78;;;-2.54;100.00
24558;BME280;12726;49.148;8.582;2024-01-15T03:32:32;99410.06;;;-2.55;100.00
24558;BME280;12726;49.148;8.582;2024-01-15T03:35:18;99416.16;;;-2.54;100.00
24558;BME280;12726;49.148;8.582;2024-01-15T03:38:03;99418.97;;;-2.56;100.00
24558;BME280;12726;49.148;8.582;2024-01-15T03:40:49;99422.09;;;-2.52;100.00
24558;BME280;12726;49.148;8.582;2024-01-15T03:43:34;99415.19;;;-2.53;100.00
24558;BME280;12726;49.148;8.582;2024-01-15T03:46:21;99396.28;;;-2.49;100.00
24558;BME280;12726;49.148;8.582;2024-01-15T03:49:06;99386.19;;;-2.53;100.00
24558;BME280;12726;49.148;8.582;2024-01-15T03:51:52;99372.03;;;-2.52;100.00
24558;BME280;12726;49.148;8.582;2024-01-15T03:54:37;99354.44;;;-2.52;100.00
24558;BME280;12726;49.148;8.582;2024-01-15T03:57:23;99344.88;;;-2.53;100.00
24558;BME280;12726;49.148;8.582;2024-01-15T04:00:09;99333.19;;;-2.50;100.00
24558;BME280;12726;49.148;8.582;2024-01-15T04:02:56;99336.66;;;-2.50;100.00
24558;BME280;12726;49.148;8.582;2024-01-15T04:05:41;99343.88;;;-2.52;100.00
24558;BME280;12726;49.148;8.582;2024-01-15T04:08:26;99354.94;;;-2.48;100.00
24558;BME280;12726;49.148;8.582;2024-01-15T04:11:12;99350.81;;;-2.51;100.00
24558;BME280;12726;49.148;8.582;2024-01-15T04:13:57;99343.94;;;-2.44;100.00
24558;BME280;12726;49.148;8.582;2024-01-15T04:16:43;99347.56;;;-2.45;100.00
24558;BME280;12726;49.148;8.582;2024-01-15T04:19:29;99346.44;;;-2.42;100.00
24558;BME280;12726;49.148;8.582;2024-01-15T04:22:15;99346.44;;;-2.42;100.00
24558;BME280;12726;49.148;8.582;2024-01-15T04:25:00;99340.34;;;-2.43;100.00
24558;BME280;12726;49.148;8.582;2024-01-15T04:27:46;99342.50;;;-2.38;100.00
24558;BME280;12726;49.148;8.582;2024-01-15T04:30:31;99336.25;;;-2.37;100.00
24558;BME280;12726;49.148;8.582;2024-01-15T04:33:16;99338.03;;;-2.38;100.00
24558;BME280;12726;49.148;8.582;2024-01-15T04:36:04;99345.81;;;-2.36;100.00
24558;BME280;12726;49.148;8.582;2024-01-15T04:38:50;99352.41;;;-2.32;100.00
24558;BME280;12726;49.148;8.582;2024-01-15T04:41:35;99363.78;;;-2.31;100.00
24558;BME280;12726;49.148;8.582;2024-01-15T04:44:21;99350.09;;;-2.35;100.00
24558;BME280;12726;49.148;8.582;2024-01-15T04:47:06;99357.53;;;-2.30;100.00
24558;BME280;12726;49.148;8.582;2024-01-15T04:49:51;99346.31;;;-2.32;100.00
24558;BME280;12726;49.148;8.582;2024-01-15T04:52:38;99340.59;;;-2.28;100.00
24558;BME280;12726;49.148;8.582;2024-01-15T04:55:24;99335.94;;;-2.26;100.00
24558;BME280;12726;49.148;8.582;2024-01-15T04:58:09;99340.41;;;-2.26;100.00
24558;BME280;12726;49.148;8.582;2024-01-15T05:00:54;99333.03;;;-2.23;100.00
24558;BME280;12726;49.148;8.582;2024-01-15T05:03:40;99339.28;;;-2.24;100.00
24558;BME280;12726;49.148;8.582;2024-01-15T05:06:25;99341.28;;;-2.18;100.00
24558;BME280;12726;49.148;8.582;2024-01-15T05:09:11;99331.22;;;-2.22;100.00
24558;BME280;12726;49.148;8.582;2024-01-15T05:11:57;99335.31;;;-2.20;100.00
24558;BME280;12726;49.148;8.582;2024-01-15T05:14:42;99347.22;;;-2.16;100.00
24558;BME280;12726;49.148;8.582;2024-01-15T05:17:27;99339.47;;;-2.17;100.00
24558;BME280;12726;49.148;8.582;2024-01-15T05:20:13;99341.63;;;-2.13;100.00
24558;BME280;12726;49.148;8.582;2024-01-15T05:22:58;99341.63;;;-2.13;100.00
24558;BME280;12726;49.148;8.582;2024-01-15T05:25:45;99330.09;;;-2.12;100.00
24558;BME280;12726;49.148;8.582;2024-01-15T05:28:30;99336.19;;;-2.11;100.00
24558;BME280;12726;49.148;8.582;2024-01-15T05:31:15;99339.34;;;-2.08;100.00
24558;BME280;12726;49.148;8.582;2024-01-15T05:34:01;99342.63;;;-2.06;100.00
24558;BME280;12726;49.148;8.582;2024-01-15T05:36:46;99336.72;;;-2.08;100.00
24558;BME280;12726;49.148;8.582;2024-01-15T05:39:32;99344.78;;;-2.09;100.00
24558;BME280;12726;49.148;8.582;2024-01-15T05:42:19;99342.97;;;-2.09;100.00
24558;BME280;12726;49.148;8.582;2024-01-15T05:45:05;99350.41;;;-2.04;100.00
24558;BME280;12726;49.148;8.582;2024-01-15T05:47:51;99343.47;;;-2.05;100.00
24558;BME280;12726;49.148;8.582;2024-01-15T05:50:36;99337.56;;;-2.07;100.00
24558;BME280;12726;49.148;8.582;2024-01-15T05:53:21;99322.22;;;-2.04;100.00
24558;BME280;12726;49.148;8.582;2024-01-15T05:56:06;99327.50;;;-2.04;100.00
24558;BME280;12726;49.148;8.582;2024-01-15T05:58:53;99338.56;;;-2.00;100.00
24558;BME280;12726;49.148;8.582;2024-01-15T06:01:39;99331.63;;;-2.01;100.00
24558;BME280;12726;49.148;8.582;2024-01-15T06:04:24;99320.25;;;-2.02;100.00
24558;BME280;12726;49.148;8.582;2024-01-15T06:07:10;99317.47;;;-2.00;100.00
24558;BME280;12726;49.148;8.582;2024-01-15T06:09:55;99306.28;;;-1.94;100.00
24558;BME280;12726;49.148;8.582;2024-01-15T06:12:43;99309.06;;;-1.95;100.00
24558;BME280;12726;49.148;8.582;2024-01-15T06:15:29;99310.72;;;-1.94;100.00
24558;BME280;12726;49.148;8.582;2024-01-15T06:18:15;99311.56;;;-1.94;100.00
24558;BME280;12726;49.148;8.582;2024-01-15T06:21:00;99312.22;;;-1.92;100.00
24558;BME280;12726;49.148;8.582;2024-01-15T06:23:46;99313.56;;;-1.88;100.00
24558;BME280;12726;49.148;8.582;2024-01-15T06:26:31;99306.13;;;-1.84;100.00
24558;BME280;12726;49.148;8.582;2024-01-15T06:29:17;99306.81;;;-1.82;100.00
24558;BME280;12726;49.148;8.582;2024-01-15T06:32:04;99303.50;;;-1.84;100.00
24558;BME280;12726;49.148;8.582;2024-01-15T06:34:49;99311.94;;;-1.81;100.00
24558;BME280;12726;49.148;8.582;2024-01-15T06:37:35;99298.44;;;-1.78;100.00
24558;BME280;12726;49.148;8.582;2024-01-15T06:40:20;99299.22;;;-1.77;100.00
24558;BME280;12726;49.148;8.582;2024-01-15T06:43:05;99280.94;;;-1.79;100.00
24558;BME280;12726;49.148;8.582;2024-01-15T06:45:51;99283.59;;;-1.79;100.00
24558;BME280;12726;49.148;8.582;2024-01-15T06:48:37;99291.66;;;-1.80;100.00
24558;BME280;12726;49.148;8.582;2024-01-15T06:51:23;99282.91;;;-1.81;100.00
24558;BME280;12726;49.148;8.582;2024-01-15T06:54:08;99285.53;;;-1.81;100.00
24558;BME280;12726;49.148;8.582;2024-01-15T06:56:53;99279.44;;;-1.81;100.00
24558;BME280;12726;49.148;8.582;2024-01-15T06:59:39;99283.06;;;-1.82;100.00
24558;BME280;12726;49.148;8.582;2024-01-15T07:02:24;99279.75;;;-1.84;100.00
24558;BME280;12726;49.148;8.582;2024-01-15T07:05:12;99278.28;;;-1.87;100.00
24558;BME280;12726;49.148;8.582;2024-01-15T07:07:57;99280.28;;;-1.81;100.00
24558;BME280;12726;49.148;8.582;2024-01-15T07:10:42;99284.91;;;-1.67;100.00
24558;BME280;12726;49.148;8.582;2024-01-15T07:13:28;99280.31;;;-1.65;100.00
24558;BME280;12726;49.148;8.582;2024-01-15T07:16:13;99274.22;;;-1.57;100.00
24558;BME280;12726;49.148;8.582;2024-01-15T07:18:59;99278.03;;;-1.51;100.00
24558;BME280;12726;49.148;8.582;2024-01-15T07:21:45;99287.91;;;-1.53;100.00
24558;BME280;12726;49.148;8.582;2024-01-15T07:24:31;99291.69;;;-1.48;100.00
24558;BME280;12726;49.148;8.582;2024-01-15T07:27:18;99287.94;;;-1.45;100.00
24558;BME280;12726;49.148;8.582;2024-01-15T07:30:04;99304.25;;;-1.42;100.00
24558;BME280;12726;49.148;8.582;2024-01-15T07:32:50;99298.50;;;-1.37;100.00
24558;BME280;12726;49.148;8.582;2024-01-15T07:35:36;99311.03;;;-1.31;100.00
24558;BME280;12726;49.148;8.582;2024-01-15T07:38:23;99309.38;;;-1.32;100.00
24558;BME280;12726;49.148;8.582;2024-01-15T07:41:08;99311.03;;;-1.31;100.00
24558;BME280;12726;49.148;8.582;2024-01-15T07:43:54;99314.84;;;-1.26;100.00
24558;BME280;12726;49.148;8.582;2024-01-15T07:46:39;99313.84;;;-1.25;100.00
24558;BME280;12726;49.148;8.582;2024-01-15T07:49:25;99314.84;;;-1.26;100.00
24558;BME280;12726;49.148;8.582;2024-01-15T07:52:10;99307.22;;;-1.21;100.00
24558;BME280;12726;49.148;8.582;2024-01-15T07:54:58;99313.53;;;-1.22;100.00
24558;BME280;12726;49.148;8.582;2024-01-15T07:57:44;99311.88;;;-1.23;100.00
24558;BME280;12726;49.148;8.582;2024-01-15T08:00:30;99308.72;;;-1.18;100.00
24558;BME280;12726;49.148;8.582;2024-01-15T08:03:15;99310.91;;;-1.22;100.00
24558;BME280;12726;49.148;8.582;2024-01-15T08:06:01;99302.31;;;-1.24;100.00
24558;BME280;12726;49.148;8.582;2024-01-15T08:08:46;99309.88;;;-1.21;100.00
24558;BME280;12726;49.148;8.582;2024-01-15T08:11:33;99306.91;;;-1.17;100.00
24558;BME280;12726;49.148;8.582;2024-01-15T08:14:18;99303.44;;;-1.18;100.00
24558;BME280;12726;49.148;8.582;2024-01-15T08:17:04;99299.00;;;-1.17;100.00
24558;BME280;12726;49.148;8.582;2024-01-15T08:19:49;99301.31;;;-1.14;100.00
24558;BME280;12726;49.148;8.582;2024-01-15T08:22:35;99300.97;;;-1.11;100.00
24558;BME280;12726;49.148;8.582;2024-01-15T08:25:20;99300.00;;;-1.10;100.00
24558;BME280;12726;49.148;8.582;2024-01-15T08:28:07;99291.41;;;-1.12;100.00
24558;BME280;12726;49.148;8.582;2024-01-15T08:30:53;99286.78;;;-1.10;100.00
24558;BME280;12726;49.148;8.582;2024-01-15T08:33:39;99279.03;;;-1.12;100.00
24558;BME280;12726;49.148;8.582;2024-01-15T08:36:24;99284.81;;;-1.08;100.00
24558;BME280;12726;49.148;8.582;2024-01-15T08:39:10;99286.94;;;-1.12;100.00
24558;BME280;12726;49.148;8.582;2024-01-15T08:41:55;99287.94;;;-1.13;100.00
24558;BME280;12726;49.148;8.582;2024-01-15T08:44:42;99280.84;;;-1.12;100.00
24558;BME280;12726;49.148;8.582;2024-01-15T08:47:27;99275.91;;;-1.15;100.00
24558;BME280;12726;49.148;8.582;2024-01-15T08:50:13;99267.00;;;-1.14;100.00
24558;BME280;12726;49.148;8.582;2024-01-15T08:52:59;99270.28;;;-1.12;100.00
24558;BME280;12726;49.148;8.582;2024-01-15T08:55:45;99282.34;;;-1.10;100.00
24558;BME280;12726;49.148;8.582;2024-01-15T08:58:30;99269.44;;;-1.05;100.00
24558;BME280;12726;49.148;8.582;2024-01-15T09:01:17;99274.72;;;-1.05;100.00
24558;BME280;12726;49.148;8.582;2024-01-15T09:04:03;99287.47;;;-1.00;100.00
24558;BME280;12726;49.148;8.582;2024-01-15T09:06:48;99278.34;;;-0.98;100.00
24558;BME280;12726;49.148;8.582;2024-01-15T09:09:33;99272.09;;;-0.97;100.00
24558;BME280;12726;49.148;8.582;2024-01-15T09:12:19;99274.41;;;-0.94;100.00
24558;BME280;12726;49.148;8.582;2024-01-15T09:15:06;99261.50;;;-0.89;100.00
24558;BME280;12726;49.148;8.582;2024-01-15T09:17:53;99258.19;;;-0.83;100.00
24558;BME280;12726;49.148;8.582;2024-01-15T09:20:38;99264.47;;;-0.75;100.00
24558;BME280;12726;49.148;8.582;2024-01-15T09:23:24;99270.41;;;-0.73;100.00
24558;BME280;12726;49.148;8.582;2024-01-15T09:26:09;99261.66;;;-0.82;100.00
24558;BME280;12726;49.148;8.582;2024-01-15T09:28:55;99287.09;;;-0.73;100.00
24558;BME280;12726;49.148;8.582;2024-01-15T09:31:40;99281.66;;;-0.71;100.00
24558;BME280;12726;49.148;8.582;2024-01-15T09:34:27;99284.28;;;-0.71;100.00
24558;BME280;12726;49.148;8.582;2024-01-15T09:37:13;99281.47;;;-0.78;100.00
24558;BME280;12726;49.148;8.582;2024-01-15T09:39:59;99283.78;;;-0.83;100.00
24558;BME280;12726;49.148;8.582;2024-01-15T09:42:45;99283.94;;;-0.85;100.00
24558;BME280;12726;49.148;8.582;2024-01-15T09:45:31;99277.03;;;-0.86;100.00
24558;BME280;12726;49.148;8.582;2024-01-15T09:48:16;99279.19;;;-0.81;100.00
24558;BME280;12726;49.148;8.582;2024-01-15T09:51:03;99276.03;;;-0.85;100.00
24558;BME280;12726;49.148;8.582;2024-01-15T09:53:51;99267.31;;;-0.93;100.00
24558;BME280;12726;49.148;8.582;2024-01-15T09:56:37;99261.69;;;-0.90;100.00
24558;BME280;12726;49.148;8.582;2024-01-15T09:59:24;99259.03;;;-0.90;100.00
24558;BME280;12726;49.148;8.582;2024-01-15T10:02:12;99263.00;;;-0.86;100.00
24558;BME280;12726;49.148;8.582;2024-01-15T10:04:59;99257.22;;;-0.90;100.00
24558;BME280;12726;49.148;8.582;2024-01-15T10:07:46;99245.97;;;-0.92;100.00
24558;BME280;12726;49.148;8.582;2024-01-15T10:10:36;99262.00;;;-0.85;100.00
24558;BME280;12726;49.148;8.582;2024-01-15T10:13:22;99247.97;;;-0.86;100.00
24558;BME280;12726;49.148;8.582;2024-01-15T10:16:07;99238.22;;;-0.85;100.00
24558;BME280;12726;49.148;8.582;2024-01-15T10:18:52;99247.16;;;-0.86;100.00
24558;BME280;12726;49.148;8.582;2024-01-15T10:21:38;99238.25;;;-0.93;100.00
24558;BME280;12726;49.148;8.582;2024-01-15T10:24:25;99231.16;;;-0.93;100.00
24558;BME280;12726;49.148;8.582;2024-01-15T10:27:11;99230.16;;;-1.00;100.00
24558;BME280;12726;49.148;8.582;2024-01-15T10:29:59;99227.53;;;-1.00;100.00
24558;BME280;12726;49.148;8.582;2024-01-15T10:32:57;99227.69;;;-1.01;100.00
24558;BME280;12726;49.148;8.582;2024-01-15T10:35:42;99226.03;;;-1.02;100.00
24558;BME280;12726;49.148;8.582;2024-01-15T10:38:27;99216.78;;;-1.06;100.00
24558;BME280;12726;49.148;8.582;2024-01-15T10:41:14;99232.16;;;-1.02;100.00
24558;BME280;12726;49.148;8.582;2024-01-15T10:44:02;99209.53;;;-1.04;100.00
24558;BME280;12726;49.148;8.582;2024-01-15T10:46:48;99218.94;;;-0.94;100.00
24558;BME280;12726;49.148;8.582;2024-01-15T10:49:33;99219.75;;;-0.93;100.00
24558;BME280;12726;49.148;8.582;2024-01-15T10:52:18;99208.38;;;-0.94;100.00
24558;BME280;12726;49.148;8.582;2024-01-15T10:55:05;99203.56;;;-0.98;100.00
24558;BME280;12726;49.148;8.582;2024-01-15T10:57:53;99207.84;;;-0.97;100.00
24558;BME280;12726;49.148;8.582;2024-01-15T11:00:40;99206.22;;;-0.98;100.00
24558;BME280;12726;49.148;8.582;2024-01-15T11:03:26;99198.44;;;-0.92;100.00
24558;BME280;12726;49.148;8.582;2024-01-15T11:06:16;99198.94;;;-0.96;100.00
24558;BME280;12726;49.148;8.582;2024-01-15T11:09:03;99192.00;;;-0.89;100.00
24558;BME280;12726;49.148;8.582;2024-01-15T11:11:52;99188.50;;;-0.82;100.00
24558;BME280;12726;49.148;8.582;2024-01-15T11:14:46;99189.34;;;-0.81;100.00
24558;BME280;12726;49.148;8.582;2024-01-15T11:17:58;99191.47;;;-0.85;100.00
24558;BME280;12726;49.148;8.582;2024-01-15T11:21:25;99193.34;;;-0.93;100.00
24558;BME280;12726;49.148;8.582;2024-01-15T11:24:34;99202.88;;;-0.84;100.00
24558;BME280;12726;49.148;8.582;2024-01-15T11:27:39;99197.44;;;-0.83;100.00
24558;BME280;12726;49.148;8.582;2024-01-15T11:30:26;99179.38;;;-0.71;100.00
24558;BME280;12726;49.148;8.582;2024-01-15T11:33:33;99180.88;;;-0.68;100.00
24558;BME280;12726;49.148;8.582;2024-01-15T11:36:18;99186.13;;;-0.60;100.00
24558;BME280;12726;49.148;8.582;2024-01-15T11:42:28;99190.59;;;-0.61;100.00
24558;BME280;12726;49.148;8.582;2024-01-15T11:45:19;99189.94;;;-0.63;100.00
24558;BME280;12726;49.148;8.582;2024-01-15T11:48:16;99188.59;;;-0.59;100.00
24558;BME280;12726;49.148;8.582;2024-01-15T11:51:02;99192.22;;;-0.52;100.00
24558;BME280;12726;49.148;8.582;2024-01-15T11:53:49;99193.66;;;-0.49;100.00
24558;BME280;12726;49.148;8.582;2024-01-15T11:56:38;99179.59;;;-0.42;100.00
24558;BME280;12726;49.148;8.582;2024-01-15T11:59:23;99181.53;;;-0.35;100.00
24558;BME280;12726;49.148;8.582;2024-01-15T12:02:09;99193.09;;;-0.28;100.00
24558;BME280;12726;49.148;8.582;2024-01-15T12:04:58;99184.00;;;-0.26;100.00
24558;BME280;12726;49.148;8.582;2024-01-15T12:07:44;99174.38;;;-0.19;100.00
24558;BME280;12726;49.148;8.582;2024-01-15T12:10:30;99200.97;;;-0.20;100.00
24558;BME280;12726;49.148;8.582;2024-01-15T12:13:16;99199.66;;;-0.16;100.00
24558;BME280;12726;49.148;8.582;2024-01-15T12:16:01;99187.56;;;-0.11;100.00
24558;BME280;12726;49.148;8.582;2024-01-15T12:18:47;99197.63;;;-0.14;100.00
24558;BME280;12726;49.148;8.582;2024-01-15T12:21:34;99204.56;;;-0.13;100.00
24558;BME280;12726;49.148;8.582;2024-01-15T12:24:19;99197.13;;;-0.10;100.00
24558;BME280;12726;49.148;8.582;2024-01-15T12:27:05;99193.50;;;-0.09;100.00
24558;BME280;12726;49.148;8.582;2024-01-15T12:29:50;99191.47;;;-0.07;100.00
24558;BME280;12726;49.148;8.582;2024-01-15T12:32:37;99186.38;;;-0.08;100.00
24558;BME280;12726;49.148;8.582;2024-01-15T12:35:24;99182.88;;;-0.01;100.00
24558;BME280;12726;49.148;8.582;2024-01-15T12:38:11;99185.28;;;0.09;100.00
24558;BME280;12726;49.148;8.582;2024-01-15T12:40:56;99185.75;;;0.13;100.00
24558;BME280;12726;49.148;8.582;2024-01-15T12:43:41;99174.06;;;0.07;100.00
24558;BME280;12726;49.148;8.582;2024-01-15T12:46:27;99180.81;;;0.10;100.00
24558;BME280;12726;49.148;8.582;2024-01-15T12:49:12;99180.59;;;0.19;100.00
24558;BME280;12726;49.148;8.582;2024-01-15T12:51:58;99182.41;;;0.19;100.00
24558;BME280;12726;49.148;8.582;2024-01-15T12:54:45;99192.47;;;0.23;100.00
24558;BME280;12726;49.148;8.582;2024-01-15T12:57:31;99195.59;;;0.27;100.00
24558;BME280;12726;49.148;8.582;2024-01-15T13:00:17;99193.94;;;0.26;100.00
24558;BME280;12726;49.148;8.582;2024-01-15T13:03:02;99206.28;;;0.33;100.00
24558;BME280;12726;49.148;8.582;2024-01-15T13:05:48;99208.22;;;0.39;100.00
24558;BME280;12726;49.148;8.582;2024-01-15T13:08:35;99204.59;;;0.41;100.00
24558;BME280;12726;49.148;8.582;2024-01-15T13:11:21;99213.75;;;0.53;100.00
24558;BME280;12726;49.148;8.582;2024-01-15T13:14:07;99216.00;;;0.64;100.00
24558;BME280;12726;49.148;8.582;2024-01-15T13:16:52;99229.69;;;0.67;100.00
24558;BME280;12726;49.148;8.582;2024-01-15T13:19:38;99232.94;;;0.55;100.00
24558;BME280;12726;49.148;8.582;2024-01-15T13:22:23;99232.00;;;0.48;100.00
24558;BME280;12726;49.148;8.582;2024-01-15T13:25:13;99227.81;;;0.53;100.00
24558;BME280;12726;49.148;8.582;2024-01-15T13:28:01;99240.34;;;0.59;100.00
24558;BME280;12726;49.148;8.582;2024-01-15T13:30:46;99235.72;;;0.61;100.00
24558;BME280;12726;49.148;8.582;2024-01-15T13:33:31;99245.19;;;0.56;100.00
24558;BME280;12726;49.148;8.582;2024-01-15T13:36:17;99250.00;;;0.52;100.00
24558;BME280;12726;49.148;8.582;2024-01-15T13:39:02;99249.88;;;0.46;100.00
24558;BME280;12726;49.148;8.582;2024-01-15T13:41:48;99245.59;;;0.45;100.00
24558;BME280;12726;49.148;8.582;2024-01-15T13:44:34;99241.47;;;0.42;100.00
24558;BME280;12726;49.148;8.582;2024-01-15T13:47:19;99235.81;;;0.45;100.00
24558;BME280;12726;49.148;8.582;2024-01-15T13:50:06;99238.63;;;0.44;100.00
24558;BME280;12726;49.148;8.582;2024-01-15T13:52:51;99249.44;;;0.42;100.00
24558;BME280;12726;49.148;8.582;2024-01-15T13:55:37;99257.28;;;0.50;100.00
24558;BME280;12726;49.148;8.582;2024-01-15T13:58:22;99251.31;;;0.56;100.00
24558;BME280;12726;49.148;8.582;2024-01-15T14:01:10;99248.53;;;0.72;100.00
24558;BME280;12726;49.148;8.582;2024-01-15T14:03:56;99256.50;;;0.87;100.00
24558;BME280;12726;49.148;8.582;2024-01-15T14:06:42;99248.78;;;1.00;100.00
24558;BME280;12726;49.148;8.582;2024-01-15T14:09:27;99251.34;;;1.08;100.00
24558;BME280;12726;49.148;8.582;2024-01-15T14:12:13;99259.47;;;1.07;100.00
24558;BME280;12726;49.148;8.582;2024-01-15T14:14:58;99263.78;;;1.08;100.00
24558;BME280;12726;49.148;8.582;2024-01-15T14:17:45;99262.63;;;1.10;100.00
24558;BME280;12726;49.148;8.582;2024-01-15T14:20:30;99255.84;;;1.08;100.00
24558;BME280;12726;49.148;8.582;2024-01-15T14:23:15;99263.16;;;1.06;100.00
24558;BME280;12726;49.148;8.582;2024-01-15T14:26:01;99272.72;;;1.07;100.00
24558;BME280;12726;49.148;8.582;2024-01-15T14:28:46;99273.47;;;1.01;100.00
24558;BME280;12726;49.148;8.582;2024-01-15T14:31:37;99284.25;;;0.99;100.00
24558;BME280;12726;49.148;8.582;2024-01-15T14:34:28;99284.59;;;0.96;100.00